createdAt,value
2023-04-02T00:01:00.780Z,5.82
2023-04-02T00:03:27.214Z,6.35
2023-04-02T00:05:53.661Z,6.07
2023-04-02T00:08:20.124Z,5.47
2023-04-02T00:10:46.567Z,5.57
2023-04-02T00:13:12.901Z,5.47
2023-04-02T00:15:39.241Z,5.43
2023-04-02T00:18:05.625Z,6.13
2023-04-02T00:20:32.000Z,7.22
2023-04-02T00:22:58.341Z,5.97
2023-04-02T00:25:24.715Z,6.30
2023-04-02T00:27:51.018Z,6.55
2023-04-02T00:30:17.636Z,5.93
2023-04-02T00:32:44.053Z,5.53
2023-04-02T00:35:10.423Z,5.70
2023-04-02T00:37:36.772Z,6.55
2023-04-02T00:40:03.168Z,5.63
2023-04-02T00:42:29.693Z,6.22
2023-04-02T00:44:56.009Z,5.03
2023-04-02T00:47:22.363Z,5.40
2023-04-02T00:49:48.726Z,5.82
2023-04-02T00:52:15.052Z,5.18
2023-04-02T00:54:41.425Z,5.68
2023-04-02T00:57:07.812Z,5.70
2023-04-02T00:59:34.179Z,5.78
2023-04-02T01:02:00.562Z,6.15
2023-04-02T01:04:26.960Z,6.18
2023-04-02T01:06:53.339Z,4.93
2023-04-02T01:09:19.754Z,5.63
2023-04-02T01:11:46.132Z,5.40
2023-04-02T01:14:12.449Z,6.35
2023-04-02T01:16:39.304Z,6.53
2023-04-02T01:19:05.654Z,6.18
2023-04-02T01:21:32.074Z,5.22
2023-04-02T01:23:58.541Z,5.88
2023-04-02T01:26:24.856Z,6.22
2023-04-02T01:28:51.198Z,6.25
2023-04-02T01:31:17.715Z,5.85
2023-04-02T01:33:44.120Z,6.40
2023-04-02T01:36:10.561Z,5.65
2023-04-02T01:38:37.026Z,6.05
2023-04-02T01:41:03.411Z,5.57
2023-04-02T01:43:29.750Z,5.95
2023-04-02T01:45:56.184Z,6.50
2023-04-02T01:48:22.730Z,5.95
2023-04-02T01:50:49.214Z,6.25
2023-04-02T01:53:15.607Z,5.75
2023-04-02T01:55:42.009Z,5.78
2023-04-02T01:58:08.336Z,5.85
2023-04-02T02:00:35.632Z,6.55
2023-04-02T02:03:02.240Z,6.88
2023-04-02T02:05:29.346Z,6.20
2023-04-02T02:07:56.538Z,6.38
2023-04-02T02:10:22.984Z,5.22
2023-04-02T02:12:49.319Z,5.53
2023-04-02T02:15:15.673Z,5.47
2023-04-02T02:17:42.019Z,5.57
2023-04-02T02:20:08.340Z,5.10
2023-04-02T02:22:34.786Z,5.80
2023-04-02T02:25:01.118Z,5.65
2023-04-02T02:27:27.478Z,5.90
2023-04-02T02:30:02.726Z,6.10
2023-04-02T02:32:29.463Z,5.45
2023-04-02T02:34:56.398Z,5.13
2023-04-02T02:37:23.608Z,5.57
2023-04-02T02:39:50.575Z,6.38
2023-04-02T02:42:16.957Z,5.85
2023-04-02T02:44:43.749Z,5.45
2023-04-02T02:47:10.343Z,6.00
2023-04-02T02:49:36.710Z,6.15
2023-04-02T02:52:04.286Z,5.97
2023-04-02T02:54:37.763Z,5.22
2023-04-02T02:57:04.303Z,6.50
2023-04-02T02:59:30.979Z,6.20
2023-04-02T03:01:57.934Z,5.88
2023-04-02T03:04:24.443Z,4.80
2023-04-02T03:06:53.925Z,5.88
2023-04-02T03:09:22.081Z,5.68
2023-04-02T03:11:48.480Z,5.63
2023-04-02T03:14:18.746Z,5.43
2023-04-02T03:16:45.267Z,6.03
2023-04-02T03:19:12.296Z,5.80
2023-04-02T03:21:38.637Z,6.07
2023-04-02T03:24:04.996Z,5.78
2023-04-02T03:26:31.391Z,5.93
2023-04-02T03:28:58.655Z,5.53
2023-04-02T03:31:25.284Z,5.90
2023-04-02T03:33:52.721Z,5.63
2023-04-02T03:36:19.188Z,5.45
2023-04-02T03:38:45.736Z,6.57
2023-04-02T03:41:13.466Z,5.93
2023-04-02T03:43:39.861Z,6.03
2023-04-02T03:46:07.312Z,5.22
2023-04-02T03:48:33.762Z,5.85
2023-04-02T03:51:00.192Z,5.47
2023-04-02T03:53:26.751Z,4.93
2023-04-02T03:55:53.363Z,5.22
2023-04-02T03:58:19.675Z,5.05
2023-04-02T04:00:46.415Z,5.50
2023-04-02T04:03:12.894Z,5.45
2023-04-02T04:05:39.594Z,5.35
2023-04-02T04:08:05.988Z,5.25
2023-04-02T04:10:32.344Z,5.50
2023-04-02T04:12:58.683Z,5.45
2023-04-02T04:15:25.047Z,6.88
2023-04-02T04:17:51.655Z,5.45
2023-04-02T04:20:20.383Z,5.72
2023-04-02T04:22:46.862Z,5.88
2023-04-02T04:25:18.866Z,5.53
2023-04-02T04:27:45.641Z,5.03
2023-04-02T04:30:12.016Z,6.72
2023-04-02T04:32:39.649Z,5.50
2023-04-02T04:35:12.560Z,5.38
2023-04-02T04:37:39.559Z,5.40
2023-04-02T04:40:09.309Z,5.47
2023-04-02T04:42:35.658Z,5.60
2023-04-02T04:45:04.788Z,6.32
2023-04-02T04:47:31.299Z,5.90
2023-04-02T04:49:59.038Z,5.72
2023-04-02T04:52:25.512Z,6.13
2023-04-02T04:54:51.987Z,5.63
2023-04-02T04:57:23.022Z,6.57
2023-04-02T04:59:49.402Z,5.30
2023-04-02T05:02:15.834Z,5.38
2023-04-02T05:04:43.011Z,6.40
2023-04-02T05:07:13.631Z,5.60
2023-04-02T05:09:43.251Z,4.95
2023-04-02T05:12:13.042Z,6.45
2023-04-02T05:14:39.409Z,5.20
2023-04-02T05:17:06.348Z,7.45
2023-04-02T05:19:32.691Z,5.38
2023-04-02T05:21:59.275Z,5.60
2023-04-02T05:24:25.845Z,5.72
2023-04-02T05:26:53.634Z,5.63
2023-04-02T05:29:19.986Z,5.43
2023-04-02T05:31:47.142Z,5.90
2023-04-02T05:34:13.509Z,5.45
2023-04-02T05:36:40.077Z,6.93
2023-04-02T05:39:06.514Z,7.60
2023-04-02T05:41:42.595Z,7.63
2023-04-02T05:44:08.993Z,7.90
2023-04-02T05:46:35.362Z,7.07
2023-04-02T05:49:01.735Z,7.60
2023-04-02T05:51:28.519Z,6.32
2023-04-02T05:53:55.244Z,6.18
2023-04-02T05:56:21.644Z,6.55
2023-04-02T05:58:50.110Z,7.00
2023-04-02T06:03:52.735Z,5.47
2023-04-02T06:06:19.496Z,6.13
2023-04-02T06:08:45.865Z,5.60
2023-04-02T06:11:12.331Z,4.90
2023-04-02T06:13:40.668Z,5.82
2023-04-02T06:16:07.446Z,5.78
2023-04-02T06:18:33.886Z,5.85
2023-04-02T06:21:00.198Z,5.28
2023-04-02T06:23:27.486Z,5.40
2023-04-02T06:25:55.273Z,4.75
2023-04-02T06:28:22.974Z,5.03
2023-04-02T06:30:51.873Z,5.13
2023-04-02T06:33:19.112Z,4.38
2023-04-02T06:35:46.437Z,5.38
2023-04-02T06:38:15.542Z,5.22
2023-04-02T06:40:41.935Z,5.40
2023-04-02T06:43:13.690Z,4.45
2023-04-02T06:46:12.449Z,5.03
2023-04-02T06:48:54.674Z,4.05
2023-04-02T06:51:21.312Z,4.63
2023-04-02T06:53:48.081Z,4.68
2023-04-02T06:56:16.090Z,4.65
2023-04-02T06:58:42.539Z,4.80
2023-04-02T07:01:09.113Z,5.85
2023-04-02T07:03:41.039Z,4.53
2023-04-02T07:06:20.248Z,4.00
2023-04-02T07:08:48.717Z,4.60
2023-04-02T07:11:16.267Z,5.10
2023-04-02T07:13:43.695Z,4.15
2023-04-02T07:16:10.310Z,4.97
2023-04-02T07:18:36.855Z,4.13
2023-04-02T07:21:05.757Z,3.58
2023-04-02T07:23:32.229Z,4.50
2023-04-02T07:25:58.560Z,4.38
2023-04-02T07:28:24.921Z,3.38
2023-04-02T07:30:51.318Z,3.78
2023-04-02T07:33:17.641Z,5.25
2023-04-02T07:35:44.182Z,4.72
2023-04-02T07:38:10.549Z,4.20
2023-04-02T07:40:36.841Z,3.42
2023-04-02T07:43:03.277Z,4.20
2023-04-02T07:45:29.586Z,3.97
2023-04-02T07:47:56.051Z,4.18
2023-04-02T07:50:22.519Z,4.47
2023-04-02T07:52:48.844Z,3.92
2023-04-02T07:55:15.197Z,4.38
2023-04-02T07:57:42.027Z,4.80
2023-04-02T08:00:09.475Z,4.00
2023-04-02T08:02:38.681Z,4.00
2023-04-02T08:05:05.043Z,5.25
2023-04-02T08:07:31.369Z,5.13
2023-04-02T08:09:57.699Z,4.43
2023-04-02T08:12:24.075Z,3.88
2023-04-02T08:14:50.400Z,3.88
2023-04-02T08:17:16.703Z,3.85
2023-04-02T08:19:54.186Z,3.30
2023-04-02T08:22:21.662Z,4.15
2023-04-02T08:24:48.041Z,3.42
2023-04-02T08:27:14.368Z,3.33
2023-04-02T08:29:40.740Z,4.03
2023-04-02T08:32:07.129Z,3.78
2023-04-02T08:34:33.509Z,3.55
2023-04-02T08:36:59.878Z,3.80
2023-04-02T08:39:26.293Z,3.35
2023-04-02T08:41:52.608Z,3.20
2023-04-02T08:44:18.996Z,3.33
2023-04-02T08:46:45.359Z,3.67
2023-04-02T08:49:11.670Z,3.63
2023-04-02T08:51:38.063Z,2.80
2023-04-02T08:54:04.756Z,3.40
2023-04-02T08:56:31.140Z,3.45
2023-04-02T08:58:57.460Z,3.40
2023-04-02T09:01:23.866Z,3.20
2023-04-02T09:03:50.185Z,3.53
2023-04-02T09:06:16.772Z,4.85
2023-04-02T09:08:43.257Z,2.92
2023-04-02T09:11:09.567Z,4.03
2023-04-02T09:13:35.921Z,3.08
2023-04-02T09:16:02.308Z,3.53
2023-04-02T09:18:28.741Z,4.18
2023-04-02T09:20:55.101Z,3.75
2023-04-02T09:23:21.489Z,3.83
2023-04-02T09:25:57.409Z,3.63
2023-04-02T09:28:29.660Z,3.95
2023-04-02T09:30:55.988Z,3.60
2023-04-02T09:33:22.323Z,4.97
2023-04-02T09:35:48.753Z,5.65
2023-04-02T09:38:15.079Z,4.40
2023-04-02T09:40:41.395Z,4.88
2023-04-02T09:43:07.760Z,5.00
2023-04-02T09:45:34.358Z,7.20
2023-04-02T09:48:00.915Z,5.93
2023-04-02T09:50:27.285Z,6.20
2023-04-02T09:52:53.593Z,6.40
2023-04-02T09:55:19.935Z,8.27
2023-04-02T09:57:46.317Z,7.40
2023-04-02T10:00:25.255Z,7.35
2023-04-02T10:02:57.513Z,7.18
2023-04-02T10:05:39.450Z,7.50
2023-04-02T10:08:06.704Z,7.70
2023-04-02T10:10:33.051Z,8.57
2023-04-02T10:12:59.394Z,8.32
2023-04-02T10:15:25.754Z,7.63
2023-04-02T10:17:52.081Z,8.85
2023-04-02T10:20:18.442Z,8.00
2023-04-02T10:22:44.800Z,7.82
2023-04-02T10:25:11.129Z,7.38
2023-04-02T10:27:37.448Z,6.68
2023-04-02T10:30:03.827Z,6.60
2023-04-02T10:32:30.189Z,7.10
2023-04-02T10:34:56.540Z,6.63
2023-04-02T10:37:22.906Z,7.30
2023-04-02T10:39:49.223Z,6.95
2023-04-02T10:42:15.550Z,7.30
2023-04-02T10:44:41.922Z,7.88
2023-04-02T10:47:08.276Z,6.65
2023-04-02T10:49:35.952Z,6.47
2023-04-02T10:52:02.374Z,6.07
2023-04-02T10:54:28.706Z,6.25
2023-04-02T10:56:55.107Z,6.78
2023-04-02T10:59:21.521Z,6.07
2023-04-02T11:01:47.893Z,5.85
2023-04-02T11:04:14.332Z,6.25
2023-04-02T11:06:40.724Z,7.55
2023-04-02T11:09:07.034Z,5.68
2023-04-02T11:11:33.352Z,6.70
2023-04-02T11:13:59.720Z,6.63
2023-04-02T11:16:26.174Z,5.25
2023-04-02T11:18:52.515Z,5.78
2023-04-02T11:21:18.877Z,5.35
2023-04-02T11:23:45.244Z,6.68
2023-04-02T11:26:11.547Z,7.70
2023-04-02T11:28:37.937Z,5.63
2023-04-02T11:31:04.343Z,5.85
2023-04-02T11:33:38.139Z,5.68
2023-04-02T11:36:05.719Z,5.50
2023-04-02T11:38:32.056Z,6.15
2023-04-02T11:40:58.446Z,5.60
2023-04-02T11:43:24.850Z,5.80
2023-04-02T11:45:53.475Z,5.75
2023-04-02T11:48:20.022Z,5.60
2023-04-02T11:50:46.743Z,5.80
2023-04-02T11:53:13.231Z,5.03
2023-04-02T11:55:39.809Z,5.50
2023-04-02T11:58:06.381Z,6.93
2023-04-02T12:00:32.717Z,7.05
2023-04-02T12:02:59.093Z,6.70
2023-04-02T12:05:25.521Z,7.65
2023-04-02T12:07:51.878Z,6.75
2023-04-02T12:10:18.235Z,7.68
2023-04-02T12:12:44.603Z,6.63
2023-04-02T12:15:10.913Z,6.75
2023-04-02T12:17:37.285Z,6.63
2023-04-02T12:20:05.634Z,7.32
2023-04-02T12:22:32.291Z,8.25
2023-04-02T12:24:58.605Z,6.82
2023-04-02T12:27:24.981Z,6.78
2023-04-02T12:29:51.297Z,6.03
2023-04-02T12:32:17.614Z,7.18
2023-04-02T12:34:43.992Z,5.80
2023-04-02T12:37:10.287Z,5.78
2023-04-02T12:39:36.627Z,6.07
2023-04-02T12:42:03.014Z,7.05
2023-04-02T12:44:29.330Z,6.97
2023-04-02T12:46:55.649Z,7.00
2023-04-02T12:49:22.017Z,6.78
2023-04-02T12:51:48.331Z,5.45
2023-04-02T12:54:14.645Z,6.43
2023-04-02T12:56:41.005Z,6.35
2023-04-02T12:59:07.339Z,6.70
2023-04-02T13:01:33.673Z,6.25
2023-04-02T13:04:00.221Z,6.38
2023-04-02T13:06:26.582Z,6.88
2023-04-02T13:08:52.969Z,5.30
2023-04-02T13:11:19.322Z,5.32
2023-04-02T13:13:45.654Z,6.72
2023-04-02T13:16:12.022Z,7.10
2023-04-02T13:18:38.407Z,6.07
2023-04-02T13:21:04.720Z,6.55
2023-04-02T13:23:31.050Z,6.22
2023-04-02T13:25:57.424Z,6.53
2023-04-02T13:28:23.780Z,6.07
2023-04-02T13:30:50.098Z,6.00
2023-04-02T13:33:16.504Z,6.07
2023-04-02T13:35:42.838Z,6.03
2023-04-02T13:38:09.224Z,6.85
2023-04-02T13:40:35.771Z,7.10
2023-04-02T13:43:02.225Z,5.97
2023-04-02T13:45:28.568Z,6.68
2023-04-02T13:47:55.024Z,7.10
2023-04-02T13:50:21.393Z,7.07
2023-04-02T13:52:47.721Z,6.35
2023-04-02T13:55:14.087Z,6.47
2023-04-02T13:57:40.406Z,6.75
2023-04-02T14:00:06.707Z,7.15
2023-04-02T14:02:33.082Z,6.57
2023-04-02T14:04:59.412Z,6.35
2023-04-02T14:07:25.738Z,7.28
2023-04-02T14:09:52.112Z,6.72
2023-04-02T14:12:18.449Z,6.97
2023-04-02T14:14:44.798Z,6.60
2023-04-02T14:17:11.173Z,6.65
2023-04-02T14:19:37.522Z,7.40
2023-04-02T14:22:03.844Z,7.53
2023-04-02T14:24:30.231Z,6.82
2023-04-02T14:26:56.567Z,7.20
2023-04-02T14:29:22.871Z,6.53
2023-04-02T14:31:49.229Z,7.90
2023-04-02T14:34:15.551Z,7.10
2023-04-02T14:36:41.887Z,8.13
2023-04-02T14:39:08.269Z,8.68
2023-04-02T14:41:34.609Z,8.00
2023-04-02T14:44:00.956Z,8.68
2023-04-02T14:46:27.415Z,8.20
2023-04-02T14:48:53.787Z,8.93
2023-04-02T14:51:20.127Z,8.00
2023-04-02T14:53:46.584Z,8.35
2023-04-02T14:56:12.940Z,8.27
2023-04-02T14:58:39.284Z,8.07
2023-04-02T15:01:05.693Z,7.78
2023-04-02T15:03:32.059Z,10.43
2023-04-02T15:05:58.449Z,8.68
2023-04-02T15:08:24.822Z,8.02
2023-04-02T15:10:51.165Z,9.27
2023-04-02T15:13:17.515Z,9.38
2023-04-02T15:15:43.879Z,9.18
2023-04-02T15:18:10.233Z,10.27
2023-04-02T15:20:36.726Z,8.30
2023-04-02T15:23:03.217Z,9.80
2023-04-02T15:25:29.531Z,9.15
2023-04-02T15:27:55.886Z,9.02
2023-04-02T15:30:22.253Z,9.77
2023-04-02T15:32:48.620Z,8.00
2023-04-02T15:35:15.017Z,8.75
2023-04-02T15:37:41.374Z,8.98
2023-04-02T15:40:07.720Z,10.63
2023-04-02T15:42:34.115Z,10.23
2023-04-02T15:45:00.505Z,10.82
2023-04-02T15:47:26.856Z,9.43
2023-04-02T15:49:53.179Z,8.60
2023-04-02T15:52:19.586Z,8.95
2023-04-02T15:54:45.919Z,9.27
2023-04-02T15:57:12.278Z,8.48
2023-04-02T15:59:38.710Z,8.85
2023-04-02T16:02:05.047Z,8.48
2023-04-02T16:04:31.495Z,9.13
2023-04-02T16:06:58.062Z,10.65
2023-04-02T16:09:24.380Z,9.18
2023-04-02T16:11:50.701Z,8.15
2023-04-02T16:14:17.060Z,8.73
2023-04-02T16:16:43.420Z,8.93
2023-04-02T16:19:16.766Z,8.85
2023-04-02T16:21:43.475Z,9.07
2023-04-02T16:24:09.804Z,8.23
2023-04-02T16:26:36.139Z,8.52
2023-04-02T16:29:02.498Z,8.70
2023-04-02T16:31:29.035Z,9.15
2023-04-02T16:33:55.411Z,8.77
2023-04-02T16:36:21.784Z,8.82
2023-04-02T16:38:48.147Z,8.85
2023-04-02T16:41:14.453Z,9.38
2023-04-02T16:43:40.801Z,8.82
2023-04-02T16:46:07.180Z,7.75
2023-04-02T16:48:33.492Z,8.15
2023-04-02T16:50:59.843Z,8.45
2023-04-02T16:53:26.194Z,8.07
2023-04-02T16:55:52.524Z,8.73
2023-04-02T16:58:18.896Z,9.00
2023-04-02T17:00:45.219Z,8.38
2023-04-02T17:03:11.666Z,8.20
2023-04-02T17:05:38.110Z,10.05
2023-04-02T17:08:04.653Z,8.32
2023-04-02T17:10:31.041Z,10.25
2023-04-02T17:12:57.402Z,9.13
2023-04-02T17:15:27.668Z,7.82
2023-04-02T17:17:55.056Z,7.88
2023-04-02T17:20:21.449Z,9.13
2023-04-02T17:22:47.825Z,9.88
2023-04-02T17:25:14.124Z,8.02
2023-04-02T17:27:40.491Z,8.57
2023-04-02T17:30:06.808Z,8.13
2023-04-02T17:32:33.240Z,8.30
2023-04-02T17:34:59.748Z,8.07
2023-04-02T17:37:26.084Z,8.43
2023-04-02T17:39:52.423Z,8.80
2023-04-02T17:42:18.803Z,8.05
2023-04-02T17:44:45.117Z,8.50
2023-04-02T17:47:11.558Z,10.77
2023-04-02T17:49:37.967Z,7.97
2023-04-02T17:52:04.339Z,8.27
2023-04-02T17:54:30.693Z,9.07
2023-04-02T17:56:57.088Z,8.32
2023-04-02T17:59:23.431Z,9.10
2023-04-02T18:01:49.769Z,8.38
2023-04-02T18:04:16.141Z,9.45
2023-04-02T18:06:42.477Z,9.48
2023-04-02T18:09:08.806Z,9.90
2023-04-02T18:11:35.210Z,9.07
2023-04-02T18:14:01.543Z,9.60
2023-04-02T18:16:27.903Z,9.52
2023-04-02T18:18:54.277Z,8.95
2023-04-02T18:21:20.629Z,10.38
2023-04-02T18:23:46.952Z,10.23
2023-04-02T18:26:13.343Z,8.95
2023-04-02T18:28:39.733Z,8.88
2023-04-02T18:31:06.111Z,9.73
2023-04-02T18:33:32.546Z,8.77
2023-04-02T18:35:58.950Z,9.18
2023-04-02T18:38:25.295Z,7.40
2023-04-02T18:40:51.667Z,10.57
2023-04-02T18:43:18.005Z,8.80
2023-04-02T18:45:44.334Z,9.30
2023-04-02T18:48:10.705Z,7.35
2023-04-02T18:50:37.186Z,9.10
2023-04-02T18:53:03.658Z,8.43
2023-04-02T18:55:30.007Z,9.15
2023-04-02T18:57:56.322Z,8.05
2023-04-02T19:00:22.648Z,7.80
2023-04-02T19:02:49.194Z,8.48
2023-04-02T19:05:15.587Z,7.35
2023-04-02T19:07:41.922Z,7.95
2023-04-02T19:10:08.297Z,8.15
2023-04-02T19:12:34.608Z,7.85
2023-04-02T19:15:00.912Z,7.35
2023-04-02T19:17:27.341Z,7.95
2023-04-02T19:19:53.687Z,7.15
2023-04-02T19:22:20.026Z,8.02
2023-04-02T19:24:46.378Z,8.43
2023-04-02T19:27:12.690Z,7.35
2023-04-02T19:29:39.028Z,7.07
2023-04-02T19:32:05.391Z,7.55
2023-04-02T19:34:31.715Z,7.72
2023-04-02T19:36:58.021Z,7.25
2023-04-02T19:39:24.410Z,7.57
2023-04-02T19:41:50.700Z,7.53
2023-04-02T19:44:17.005Z,7.85
2023-04-02T19:46:43.403Z,7.07
2023-04-02T19:49:09.762Z,7.38
2023-04-02T19:51:36.080Z,6.68
2023-04-02T19:54:02.480Z,6.60
2023-04-02T19:56:28.820Z,7.38
2023-04-02T19:58:56.661Z,6.85
2023-04-02T20:01:23.167Z,7.65
2023-04-02T20:03:49.550Z,7.13
2023-04-02T20:06:15.934Z,7.57
2023-04-02T20:08:42.299Z,7.47
2023-04-02T20:11:08.609Z,7.38
2023-04-02T20:13:34.932Z,6.53
2023-04-02T20:16:01.299Z,7.05
2023-04-02T20:18:27.624Z,7.03
2023-04-02T20:20:53.959Z,6.88
2023-04-02T20:23:20.343Z,6.82
2023-04-02T20:25:46.704Z,6.80
2023-04-02T20:28:13.045Z,7.18
2023-04-02T20:30:39.568Z,7.47
2023-04-02T20:33:06.005Z,7.25
2023-04-02T20:35:32.463Z,7.18
2023-04-02T20:37:58.840Z,7.00
2023-04-02T20:40:25.155Z,6.38
2023-04-02T20:42:51.494Z,7.05
2023-04-02T20:45:17.875Z,8.23
2023-04-02T20:47:44.206Z,8.02
2023-04-02T20:50:10.551Z,7.43
2023-04-02T20:52:36.924Z,6.95
2023-04-02T20:55:03.241Z,7.15
2023-04-02T20:57:29.641Z,6.78
2023-04-02T20:59:56.047Z,7.38
2023-04-02T21:02:22.357Z,6.20
2023-04-02T21:04:48.745Z,7.03
2023-04-02T21:07:15.167Z,6.40
2023-04-02T21:09:41.484Z,6.20
2023-04-02T21:12:07.810Z,7.63
2023-04-02T21:14:34.175Z,6.63
2023-04-02T21:17:00.494Z,5.97
2023-04-02T21:19:26.793Z,6.10
2023-04-02T21:21:53.156Z,6.78
2023-04-02T21:24:19.454Z,6.53
2023-04-02T21:26:45.770Z,6.47
2023-04-02T21:29:12.178Z,5.72
2023-04-02T21:31:38.567Z,5.60
2023-04-02T21:34:04.938Z,5.80
2023-04-02T21:36:31.313Z,5.55
2023-04-02T21:38:57.665Z,6.80
2023-04-02T21:41:24.023Z,4.82
2023-04-02T21:43:50.387Z,4.97
2023-04-02T21:46:16.773Z,5.45
2023-04-02T21:48:43.139Z,4.75
2023-04-02T21:51:09.514Z,4.68
2023-04-02T21:53:35.872Z,5.22
2023-04-02T21:56:02.200Z,5.40
2023-04-02T21:58:28.545Z,5.20
2023-04-02T22:00:54.926Z,4.70
2023-04-02T22:03:31.083Z,6.35
2023-04-02T22:05:58.206Z,4.65
2023-04-02T22:08:24.533Z,5.20
2023-04-02T22:10:50.878Z,5.35
2023-04-02T22:13:17.308Z,4.43
2023-04-02T22:15:43.604Z,5.45
2023-04-02T22:18:09.913Z,4.90
2023-04-02T22:20:36.409Z,4.75
2023-04-02T22:23:02.843Z,5.05
2023-04-02T22:25:29.158Z,4.80
2023-04-02T22:27:55.526Z,4.80
2023-04-02T22:30:21.857Z,5.68
2023-04-02T22:32:48.202Z,5.15
2023-04-02T22:35:14.564Z,5.50
2023-04-02T22:37:40.898Z,5.53
2023-04-02T22:40:07.214Z,4.95
2023-04-02T22:42:33.676Z,5.32
2023-04-02T22:44:59.990Z,5.45
2023-04-02T22:47:26.333Z,5.22
2023-04-02T22:49:52.699Z,5.50
2023-04-02T22:52:19.065Z,5.30
2023-04-02T22:54:45.370Z,5.63
2023-04-02T22:57:11.785Z,6.53
2023-04-02T22:59:38.120Z,5.85
2023-04-02T23:02:04.469Z,5.85
2023-04-02T23:04:30.842Z,5.68
2023-04-02T23:06:57.165Z,5.60
2023-04-02T23:09:23.495Z,5.07
2023-04-02T23:11:49.864Z,6.10
2023-04-02T23:14:16.192Z,5.93
2023-04-02T23:16:42.498Z,4.82
2023-04-02T23:19:08.883Z,5.97
2023-04-02T23:21:35.226Z,5.20
2023-04-02T23:24:01.543Z,4.93
2023-04-02T23:26:27.922Z,4.95
2023-04-02T23:28:54.248Z,5.57
2023-04-02T23:31:20.614Z,5.13
2023-04-02T23:33:47.022Z,5.20
2023-04-02T23:36:13.395Z,4.80
2023-04-02T23:38:39.788Z,5.05
2023-04-02T23:41:06.200Z,5.13
2023-04-02T23:43:32.514Z,4.70
2023-04-02T23:45:58.883Z,4.90
2023-04-02T23:48:25.268Z,5.30
2023-04-02T23:50:51.602Z,4.82
2023-04-02T23:53:17.985Z,4.50
2023-04-02T23:55:44.345Z,6.03
2023-04-02T23:58:10.647Z,4.90
